createdAt,value
2022-11-20T00:01:11.211Z,7.90
2022-11-20T00:05:13.123Z,7.80
2022-11-20T00:09:14.966Z,8.00
2022-11-20T00:13:16.942Z,8.10
2022-11-20T00:17:18.780Z,8.00
2022-11-20T00:21:22.976Z,8.10
2022-11-20T00:25:24.770Z,8.00
2022-11-20T00:29:26.534Z,8.00
2022-11-20T00:33:29.154Z,8.00
2022-11-20T00:37:31.020Z,7.90
2022-11-20T00:41:32.878Z,8.00
2022-11-20T00:45:34.704Z,8.20
2022-11-20T00:49:36.497Z,8.40
2022-11-20T00:53:38.383Z,8.20
2022-11-20T00:57:40.208Z,8.10
2022-11-20T01:01:42.052Z,8.10
2022-11-20T01:05:43.858Z,8.10
2022-11-20T01:09:45.688Z,8.10
2022-11-20T01:13:49.125Z,8.30
2022-11-20T01:17:50.953Z,7.70
2022-11-20T01:21:54.414Z,8.30
2022-11-20T01:25:56.244Z,8.10
2022-11-20T01:30:01.089Z,8.10
2022-11-20T01:34:08.688Z,8.30
2022-11-20T01:38:10.506Z,8.00
2022-11-20T01:42:30.828Z,8.10
2022-11-20T01:46:35.988Z,7.90
2022-11-20T01:50:37.944Z,8.00
2022-11-20T01:54:46.838Z,8.00
2022-11-20T01:58:53.508Z,7.50
2022-11-20T02:02:59.483Z,7.40
2022-11-20T02:07:03.554Z,7.30
2022-11-20T02:11:05.597Z,7.10
2022-11-20T02:15:07.657Z,6.60
2022-11-20T02:19:22.640Z,6.40
2022-11-20T02:23:27.674Z,6.70
2022-11-20T02:27:30.209Z,6.70
2022-11-20T02:31:42.360Z,6.60
2022-11-20T02:35:46.915Z,6.30
2022-11-20T02:39:51.094Z,6.00
2022-11-20T02:43:52.932Z,5.80
2022-11-20T02:47:54.799Z,5.80
2022-11-20T02:51:56.612Z,6.00
2022-11-20T02:55:58.421Z,6.00
2022-11-20T03:00:00.275Z,6.40
2022-11-20T03:04:02.356Z,6.20
2022-11-20T03:08:04.322Z,6.10
2022-11-20T03:12:06.667Z,5.90
2022-11-20T03:16:10.355Z,6.10
2022-11-20T03:20:12.463Z,6.10
2022-11-20T03:24:14.456Z,6.30
2022-11-20T03:28:16.318Z,6.90
2022-11-20T03:32:18.161Z,7.60
2022-11-20T03:36:21.234Z,7.10
2022-11-20T03:40:23.057Z,7.00
2022-11-20T03:44:25.084Z,7.20
2022-11-20T03:48:27.929Z,7.10
2022-11-20T03:52:29.779Z,7.10
2022-11-20T03:56:33.811Z,7.20
2022-11-20T04:00:36.007Z,7.40
2022-11-20T04:04:37.834Z,7.20
2022-11-20T04:08:40.060Z,7.00
2022-11-20T04:12:41.852Z,6.50
2022-11-20T04:16:44.258Z,6.70
2022-11-20T04:20:46.088Z,6.60
2022-11-20T04:24:47.905Z,6.80
2022-11-20T04:28:50.317Z,7.00
2022-11-20T04:32:53.097Z,7.20
2022-11-20T04:36:54.916Z,7.40
2022-11-20T04:41:04.839Z,7.40
2022-11-20T04:45:07.056Z,7.30
2022-11-20T04:49:09.227Z,7.60
2022-11-20T04:53:11.043Z,7.40
2022-11-20T04:57:14.859Z,7.40
2022-11-20T05:01:22.120Z,7.50
2022-11-20T05:05:24.067Z,7.70
2022-11-20T05:09:25.955Z,7.40
2022-11-20T05:13:28.161Z,7.60
2022-11-20T05:17:30.092Z,7.50
2022-11-20T05:21:33.417Z,7.80
2022-11-20T05:25:35.222Z,7.60
2022-11-20T05:29:37.057Z,7.60
2022-11-20T05:33:41.719Z,7.50
2022-11-20T05:37:43.542Z,7.70
2022-11-20T05:41:45.371Z,7.80
2022-11-20T05:45:54.986Z,7.70
2022-11-20T05:49:56.842Z,7.60
2022-11-20T05:53:59.563Z,7.60
2022-11-20T05:58:01.392Z,7.30
2022-11-20T06:02:03.206Z,7.30
2022-11-20T06:06:06.266Z,7.30
2022-11-20T06:10:08.406Z,7.10
2022-11-20T06:14:10.327Z,7.10
2022-11-20T06:18:12.108Z,6.70
2022-11-20T06:22:14.028Z,6.80
2022-11-20T06:26:19.141Z,6.90
2022-11-20T06:30:20.913Z,6.80
2022-11-20T06:34:22.756Z,7.00
2022-11-20T06:38:25.848Z,6.60
2022-11-20T06:42:27.691Z,6.30
2022-11-20T06:46:29.548Z,6.30
2022-11-20T06:50:31.452Z,6.20
2022-11-20T06:54:33.296Z,6.50
2022-11-20T06:58:36.503Z,6.40
2022-11-20T07:02:38.297Z,6.60
2022-11-20T07:06:40.166Z,6.50
2022-11-20T07:10:42.147Z,6.20
2022-11-20T07:14:44.025Z,6.00
2022-11-20T07:18:50.161Z,6.00
2022-11-20T07:22:57.127Z,6.10
2022-11-20T07:26:59.116Z,6.30
2022-11-20T07:31:01.175Z,5.80
2022-11-20T07:35:03.037Z,6.50
2022-11-20T07:39:04.942Z,6.50
2022-11-20T07:43:06.853Z,6.50
2022-11-20T07:47:08.718Z,6.90
2022-11-20T07:51:10.577Z,7.70
2022-11-20T07:55:13.128Z,7.90
2022-11-20T07:59:15.429Z,8.10
2022-11-20T08:03:24.126Z,8.20
2022-11-20T08:07:26.748Z,8.90
2022-11-20T08:11:47.222Z,8.50
2022-11-20T08:15:53.787Z,8.40
2022-11-20T08:19:55.679Z,8.10
2022-11-20T08:23:59.214Z,8.00
2022-11-20T08:28:11.511Z,8.20
2022-11-20T08:32:17.695Z,7.90
2022-11-20T08:36:20.785Z,8.10
2022-11-20T08:40:22.649Z,8.20
2022-11-20T08:44:24.490Z,7.70
2022-11-20T08:48:26.297Z,7.60
2022-11-20T08:52:28.119Z,7.60
2022-11-20T08:56:29.977Z,8.00
2022-11-20T09:00:31.810Z,8.60
2022-11-20T09:04:33.763Z,9.00
2022-11-20T09:08:37.088Z,9.30
2022-11-20T09:12:39.187Z,9.80
2022-11-20T09:16:41.122Z,10.10
2022-11-20T09:20:43.813Z,10.20
2022-11-20T09:24:45.702Z,10.10
2022-11-20T09:28:47.551Z,10.00
2022-11-20T09:32:49.409Z,9.90
2022-11-20T09:36:51.250Z,10.50
2022-11-20T09:41:51.599Z,10.60
2022-11-20T09:46:20.705Z,11.30
2022-11-20T09:50:44.246Z,11.80
2022-11-20T09:54:46.138Z,12.60
2022-11-20T09:58:53.509Z,13.00
2022-11-20T10:03:26.045Z,13.50
2022-11-20T10:07:39.310Z,14.00
2022-11-20T10:12:05.162Z,13.70
2022-11-20T10:16:20.413Z,13.30
2022-11-20T10:20:40.974Z,13.70
2022-11-20T10:24:57.417Z,14.10
2022-11-20T10:29:14.957Z,14.20
2022-11-20T10:33:24.937Z,14.50
2022-11-20T10:37:28.737Z,14.30
2022-11-20T10:41:43.054Z,14.30
2022-11-20T10:46:17.010Z,13.80
2022-11-20T10:50:22.849Z,13.30
2022-11-20T10:54:42.402Z,13.10
2022-11-20T10:59:15.364Z,12.70
2022-11-20T11:03:30.224Z,12.90
2022-11-20T11:07:39.298Z,12.00
2022-11-20T11:11:41.606Z,12.20
2022-11-20T11:15:43.462Z,12.00
2022-11-20T11:19:45.370Z,12.70
2022-11-20T11:23:47.192Z,13.40
2022-11-20T11:27:50.346Z,13.50
2022-11-20T11:31:52.235Z,13.50
2022-11-20T11:35:59.618Z,13.50
2022-11-20T11:40:23.389Z,13.30
2022-11-20T11:44:50.673Z,13.50
2022-11-20T11:49:01.498Z,13.20
2022-11-20T11:53:09.077Z,12.40
2022-11-20T11:57:19.279Z,12.20
2022-11-20T12:01:44.113Z,12.60
2022-11-20T12:05:47.167Z,12.30
2022-11-20T12:09:55.755Z,12.30
2022-11-20T12:14:04.385Z,12.70
2022-11-20T12:18:16.160Z,12.90
2022-11-20T12:22:36.826Z,13.10
2022-11-20T12:26:52.829Z,13.40
2022-11-20T12:30:57.432Z,13.60
2022-11-20T12:35:10.065Z,13.80
2022-11-20T12:39:36.590Z,13.60
2022-11-20T12:44:21.835Z,13.40
2022-11-20T12:48:54.000Z,13.40
2022-11-20T12:53:03.452Z,13.60
2022-11-20T12:57:56.795Z,13.50
2022-11-20T13:02:37.621Z,13.30
2022-11-20T13:06:42.612Z,13.10
2022-11-20T13:11:05.090Z,12.60
2022-11-20T13:15:25.918Z,12.40
2022-11-20T13:19:29.656Z,12.30
2022-11-20T13:23:32.293Z,12.10
2022-11-20T13:27:34.181Z,12.00
2022-11-20T13:31:37.757Z,11.60
2022-11-20T13:35:43.834Z,11.70
2022-11-20T13:39:45.732Z,11.30
2022-11-20T13:43:49.225Z,11.20
2022-11-20T13:47:53.026Z,11.10
2022-11-20T13:52:23.354Z,11.10
2022-11-20T13:56:40.771Z,11.30
2022-11-20T14:00:58.541Z,11.20
2022-11-20T14:05:02.152Z,11.10
2022-11-20T14:09:05.201Z,10.70
2022-11-20T14:13:33.233Z,10.00
2022-11-20T14:17:37.485Z,9.40
2022-11-20T14:21:39.327Z,9.10
2022-11-20T14:25:45.981Z,9.10
2022-11-20T14:29:50.219Z,8.40
2022-11-20T14:33:54.368Z,8.80
2022-11-20T14:37:57.080Z,8.30
2022-11-20T14:41:58.907Z,8.40
2022-11-20T14:46:05.993Z,8.60
2022-11-20T14:50:16.496Z,8.40
2022-11-20T14:54:20.253Z,8.20
2022-11-20T14:58:25.179Z,8.00
2022-11-20T15:02:27.033Z,7.50
2022-11-20T15:06:29.918Z,7.20
2022-11-20T15:10:31.880Z,5.70
2022-11-20T15:14:33.730Z,7.50
2022-11-20T15:18:42.626Z,7.40
2022-11-20T15:22:44.692Z,7.30
2022-11-20T15:26:46.966Z,7.30
2022-11-20T15:30:50.022Z,7.60
2022-11-20T15:34:51.867Z,7.50
2022-11-20T15:38:53.706Z,7.20
2022-11-20T15:43:09.704Z,7.20
2022-11-20T15:47:14.646Z,7.00
2022-11-20T15:51:30.197Z,7.30
2022-11-20T15:55:32.631Z,6.90
2022-11-20T15:59:35.412Z,6.80
2022-11-20T16:03:37.241Z,6.70
2022-11-20T16:07:39.099Z,6.60
2022-11-20T16:11:41.042Z,6.60
2022-11-20T16:15:45.802Z,6.70
2022-11-20T16:19:47.604Z,6.40
2022-11-20T16:23:49.467Z,6.60
2022-11-20T16:27:51.345Z,6.40
2022-11-20T16:31:53.150Z,6.10
2022-11-20T16:35:54.963Z,6.40
2022-11-20T16:39:57.543Z,6.50
2022-11-20T16:44:01.766Z,5.80
2022-11-20T16:48:03.745Z,5.70
2022-11-20T16:52:05.581Z,5.80
2022-11-20T16:56:18.262Z,5.70
2022-11-20T17:00:20.178Z,5.30
2022-11-20T17:04:22.241Z,5.80
2022-11-20T17:08:24.341Z,6.00
2022-11-20T17:12:26.199Z,5.80
2022-11-20T17:16:28.402Z,5.60
2022-11-20T17:20:31.049Z,5.40
2022-11-20T17:24:33.308Z,5.20
2022-11-20T17:28:36.720Z,5.40
2022-11-20T17:32:39.648Z,5.30
2022-11-20T17:36:45.520Z,5.10
2022-11-20T17:40:47.736Z,5.00
2022-11-20T17:44:49.553Z,5.50
2022-11-20T17:48:51.861Z,5.10
2022-11-20T17:52:53.734Z,4.50
2022-11-20T17:57:14.080Z,4.70
2022-11-20T18:01:16.496Z,4.40
2022-11-20T18:05:18.399Z,3.90
2022-11-20T18:09:20.226Z,4.10
2022-11-20T18:13:47.486Z,4.50
2022-11-20T18:17:49.677Z,4.50
2022-11-20T18:21:51.646Z,4.50
2022-11-20T18:25:53.494Z,4.20
2022-11-20T18:29:55.343Z,4.10
2022-11-20T18:33:57.215Z,3.80
2022-11-20T18:37:59.017Z,3.80
2022-11-20T18:42:19.720Z,4.00
2022-11-20T18:46:22.154Z,4.40
2022-11-20T18:50:24.034Z,4.20
2022-11-20T18:54:26.463Z,3.60
2022-11-20T18:58:28.782Z,3.70
2022-11-20T19:02:30.805Z,3.60
2022-11-20T19:06:32.685Z,3.90
2022-11-20T19:10:34.660Z,4.20
2022-11-20T19:14:36.921Z,3.70
2022-11-20T19:18:38.769Z,4.00
2022-11-20T19:22:40.587Z,3.70
2022-11-20T19:26:42.499Z,4.10
2022-11-20T19:30:44.550Z,4.50
2022-11-20T19:34:46.371Z,4.20
2022-11-20T19:38:50.490Z,3.70
2022-11-20T19:42:52.304Z,3.50
2022-11-20T19:46:57.136Z,3.70
2022-11-20T19:50:59.070Z,3.60
2022-11-20T19:55:00.893Z,3.10
2022-11-20T19:59:02.895Z,3.10
2022-11-20T20:03:04.735Z,3.20
2022-11-20T20:07:06.658Z,3.50
2022-11-20T20:11:12.547Z,4.00
2022-11-20T20:15:14.385Z,4.00
2022-11-20T20:19:16.558Z,4.00
2022-11-20T20:23:18.363Z,3.60
2022-11-20T20:27:20.274Z,3.30
2022-11-20T20:31:24.751Z,2.20
2022-11-20T20:35:26.647Z,3.40
2022-11-20T20:39:29.222Z,3.20
2022-11-20T20:43:31.614Z,3.10
2022-11-20T20:47:38.406Z,3.20
2022-11-20T20:51:40.226Z,3.20
2022-11-20T20:55:42.036Z,3.30
2022-11-20T20:59:43.960Z,3.10
2022-11-20T21:03:45.822Z,3.00
2022-11-20T21:08:06.524Z,2.90
2022-11-20T21:12:08.634Z,2.70
2022-11-20T21:16:11.467Z,3.20
2022-11-20T21:20:31.802Z,2.80
2022-11-20T21:24:35.341Z,2.80
2022-11-20T21:28:37.863Z,2.90
2022-11-20T21:32:39.844Z,2.80
2022-11-20T21:36:42.425Z,3.20
2022-11-20T21:40:44.301Z,2.80
2022-11-20T21:44:47.654Z,3.10
2022-11-20T21:48:49.460Z,2.70
2022-11-20T21:52:51.308Z,2.70
2022-11-20T21:56:53.258Z,3.00
2022-11-20T22:00:55.163Z,3.30
2022-11-20T22:04:57.029Z,3.10
2022-11-20T22:08:58.905Z,2.80
2022-11-20T22:13:19.388Z,3.00
2022-11-20T22:17:41.205Z,2.60
2022-11-20T22:21:43.267Z,2.30
2022-11-20T22:25:45.099Z,2.50
2022-11-20T22:29:47.006Z,3.00
2022-11-20T22:33:49.297Z,2.90
2022-11-20T22:37:51.272Z,2.90
2022-11-20T22:41:53.123Z,3.10
2022-11-20T22:45:59.623Z,3.30
2022-11-20T22:50:01.446Z,2.90
2022-11-20T22:54:03.749Z,3.20
2022-11-20T22:58:05.627Z,3.50
2022-11-20T23:02:07.527Z,3.90
2022-11-20T23:06:10.264Z,3.60
2022-11-20T23:10:13.108Z,3.60
2022-11-20T23:14:15.645Z,3.90
2022-11-20T23:18:17.500Z,4.40
2022-11-20T23:22:19.329Z,4.60
2022-11-20T23:26:28.841Z,3.70
2022-11-20T23:30:30.664Z,3.30
2022-11-20T23:34:32.501Z,3.80
2022-11-20T23:38:35.161Z,4.10
2022-11-20T23:42:36.976Z,4.00
2022-11-20T23:46:38.854Z,3.80
2022-11-20T23:50:41.685Z,3.70
2022-11-20T23:54:43.561Z,3.50
2022-11-20T23:58:45.411Z,3.80
